Terminal Aerodrome Forecast
Issued by NWS

Home | Current Version | Previous Version | Text Only | Print | Product List | Glossary On
Versions: 1 2 3 4 5 6 7 8 9 10 11 12 13 14 15 16 17 18 19 20
000
FTUS45 KGJT 231729
TAFEGE
TAF
KEGE 231729Z 2318/2418 27003KT P6SM FEW250
     FM232000 24009KT P6SM FEW140 BKN250
     FM240100 13004KT P6SM SCT250
     FM240700 VRB03KT P6SM SCT250=

USA.gov is the U.S. government's official web portal to all federal, state and local government web resources and services.